deformed-offering

Nearby METAR Reports

 

KNUQ - Moffett Nas/Mtn, California, USA
Distance from station: N 9mi, 14km
Updated: Thu, 14-Dec-2017 12:56pm PST
Clear
Clear
 Wind from N
Wind: N 7 mph , 11 km/h
Temperature: 63°F , 17°C
Dew Point: 41°F , 5°C
Humidity: 45%
Barometer: 30.09 inHg , 1019 hPa
Clouds: Clear
Visibility: 10 miles , 16 km
2017/12/14 20:56 KNUQ 142056Z 01006KT 10SM CLR 17/05 A3009 RMK AO2 SLP190 T01720050 58019
KSJC - San Jose, California, USA
Distance from station: NE 9mi, 14km
Updated: Thu, 14-Dec-2017 12:56pm PST
Partly Cloudy
Partly Cloudy
 Wind from NW
Wind: NW 3 mph , 6 km/h
Temperature: 66°F , 19°C
Dew Point: 39°F , 4°C
Humidity: 37%
Barometer: 30.08 inHg , 1018.6 hPa
Clouds: Partly Cloudy
Visibility: 7 miles , 11 km
Cloud details: Few Clouds 900 ft
Few Clouds 3000 ft
Partly Cloudy 9500 ft
2017/12/14 20:56 KSJC 142056Z 31003KT 7SM FEW009 FEW030 SCT095 19/04 A3008 RMK AO2 FU FEW009 FU FEW030 T01890039
 
KRHV - San Jose/Reid, California, USA
Distance from station: ENE 12mi, 19km
Updated: Thu, 14-Dec-2017 12:47pm PST
Clear
Clear
 Wind from calm
Wind: Calm
Temperature: 68°F , 20°C
Dew Point: 36°F , 2°C
Humidity: 30%
Barometer: 30.06 inHg , 1017.9 hPa
Clouds: Clear
Visibility: 10 miles , 16 km
2017/12/14 20:47 KRHV 142047Z 00000KT 10SM SKC 20/02 A3006
KPAO - Palo Alto, California, USA
Distance from station: NNW 14mi, 23km
Updated: Thu, 14-Dec-2017 12:47pm PST
Clear
Clear
 Wind from NNW
Wind: NNW 9 mph , 15 km/h
Temperature: 63°F , 17°C
Dew Point: 50°F , 10°C
Humidity: 64%
Barometer: 30.08 inHg , 1018.6 hPa
Clouds: Clear
Visibility: 10 miles , 16 km
2017/12/14 20:47 KPAO 142047Z 34008KT 10SM SKC 17/10 A3008
 
KSQL - San Carlos Airpo, California, USA
Distance from station: NW 21mi, 34km
Updated: Thu, 14-Dec-2017 12:50pm PST
Few Clouds
Few Clouds
 Wind from NNW
Wind: NNW 6 mph , 9 km/h
Temperature: 61°F , 16°C
Dew Point: 48°F , 9°C
Humidity: 63%
Barometer: 30.09 inHg , 1019 hPa
Clouds: Few Clouds
Visibility: 8 miles , 13 km
Cloud details: Few Clouds 20000 ft
2017/12/14 20:50 KSQL 142050Z 34005KT 8SM FEW200 16/09 A3009
KE16 - San Martin, California, USA
Distance from station: ESE 27mi, 43km
Updated: Thu, 14-Dec-2017 12:50pm PST
Clear
Clear
 Wind from calm
Wind: Calm
Temperature: 66°F , 19°C
Dew Point: 34°F , 1°C
Humidity: 30%
Barometer: 30.09 inHg , 1019 hPa
Clouds: Clear
Visibility: 10 miles , 16 km
2017/12/14 20:50 KE16 142050Z AUTO 00000KT 10SM CLR 19/01 A3009 RMK AO2 PWINO PNO
 
KWVI - Watsonville, California, USA
Distance from station: SSE 27mi, 44km
Updated: Thu, 14-Dec-2017 12:53pm PST
Clear
Clear
 Wind from E
Wind: E 6 mph , 9 km/h
Temperature: 70°F , 21°C
Dew Point: 37°F , 3°C
Humidity: 31%
Barometer: 30.07 inHg , 1018.3 hPa
Clouds: Clear
Visibility: 10 miles , 16 km
2017/12/14 20:53 KWVI 142053Z AUTO 09005KT 10SM CLR 21/03 A3007 RMK AO2 SLP182 T02110028 58016
KHWD - Hayward, California, USA
Distance from station: N 28mi, 44km
Updated: Thu, 14-Dec-2017 12:54pm PST
Clear
Clear
 Wind from W
Wind: W 6 mph , 9 km/h
Temperature: 63°F , 17°C
Dew Point: 39°F , 4°C
Humidity: 42%
Barometer: 30.09 inHg , 1019 hPa
Clouds: Clear
Visibility: 9 miles , 14 km
2017/12/14 20:54 KHWD 142054Z 27005KT 9SM CLR 17/04 A3009 RMK AO2 SLP198 T01720039 58015
 
KSFO - San Francisco, California, USA
Distance from station: NW 30mi, 49km
Updated: Thu, 14-Dec-2017 12:56pm PST
Clear
Clear
 Wind from N
Wind: N 5 mph , 7 km/h
Temperature: 57°F , 14°C
Dew Point: 48°F , 9°C
Humidity: 72%
Barometer: 30.09 inHg , 1019 hPa
Clouds: Clear
Visibility: 9 miles , 14 km
2017/12/14 20:56 KSFO 142056Z 36004KT 9SM CLR 14/09 A3009 RMK AO2 SLP190 T01390094 58013
KHAF - Half Moon Bay, California, USA
Distance from station: WNW 31mi, 50km
Updated: Thu, 14-Dec-2017 12:55pm PST
Clear
Clear
 Wind from SE
Wind: SE 6 mph , 9 km/h
Temperature: 63°F , 17°C
Dew Point: 48°F , 9°C
Humidity: 59%
Barometer: 30.06 inHg , 1017.9 hPa
Clouds: Clear
Visibility: 7 miles , 11 km
2017/12/14 20:55 KHAF 142055Z AUTO 14005KT 7SM CLR 17/09 A3006 RMK AO2
 
KOAK - Oakland, California, USA
Distance from station: NNW 31mi, 50km
Updated: Thu, 14-Dec-2017 12:53pm PST
Few Clouds
Few Clouds
 Wind from WNW
Wind: WNW 9 mph , 15 km/h
Temperature: 61°F , 16°C
Dew Point: 46°F , 8°C
Humidity: 59%
Barometer: 30.09 inHg , 1019 hPa
Clouds: Few Clouds
Visibility: 10 miles , 16 km
Cloud details: Few Clouds 20000 ft
2017/12/14 20:53 KOAK 142053Z 30008KT 10SM FEW200 16/08 A3009 RMK AO2 SLP190 T01560078 58014
KLVK - Livermore, California, USA
Distance from station: NNE 31mi, 51km
Updated: Thu, 14-Dec-2017 12:53pm PST
Clear
Clear
 Wind from ENE
Wind: ENE 9 mph , 15 km/h
Temperature: 68°F , 20°C
Dew Point: 30°F , -1°C
Humidity: 24%
Barometer: 30.08 inHg , 1018.6 hPa
Clouds: Clear
Visibility: 10 miles , 16 km
2017/12/14 20:53 KLVK 142053Z 06008KT 10SM CLR 20/M01 A3008 RMK AO2 SLP187 T02001011 58014
 
KCVH - Hollister Muni, California, USA
Distance from station: SE 42mi, 68km
Updated: Thu, 14-Dec-2017 12:55pm PST
Clear
Clear
 Wind from calm
Wind: Calm
Temperature: 68°F , 20°C
Dew Point: 36°F , 2°C
Humidity: 30%
Barometer: 30.08 inHg , 1018.6 hPa
Clouds: Clear
Visibility: 10 miles , 16 km
2017/12/14 20:55 KCVH 142055Z AUTO 00000KT 10SM CLR 20/02 A3008 RMK A01
KSNS - Salinas, California, USA
Distance from station: SSE 48mi, 77km
Updated: Thu, 14-Dec-2017 12:53pm PST
Clear
Clear
 Wind from E
Wind: E 6 mph , 9 km/h
Temperature: 72°F , 22°C
Dew Point: 30°F , -1°C
Humidity: 22%
Barometer: 30.05 inHg , 1017.6 hPa
Clouds: Clear
Visibility: 10 miles , 16 km
2017/12/14 20:53 KSNS 142053Z 08005KT 10SM CLR 22/M01 A3005 RMK AO2 SLP183 T02171011 58024
 
KMRY - Monterey, California, USA
Distance from station: SSE 49mi, 78km
Updated: Thu, 14-Dec-2017 12:54pm PST
Clear
Clear
 Wind from WSW
Wind: WSW 9 mph , 15 km/h
Temperature: 64°F , 18°C
Dew Point: 41°F , 5°C
Humidity: 43%
Barometer: 30.06 inHg , 1017.9 hPa
Clouds: Clear
Visibility: 10 miles , 16 km
2017/12/14 20:54 KMRY 142054Z 25008KT 10SM CLR 18/05 A3006 RMK AO2 SLP191 T01830050 56015
KCCR - Concord, California, USA
Distance from station: N 50mi, 81km
Updated: Thu, 14-Dec-2017 12:53pm PST
Clear
Clear
 Wind from N
Wind: N 6 mph , 9 km/h
Temperature: 63°F , 17°C
Dew Point: 41°F , 5°C
Humidity: 45%
Barometer: 30.11 inHg , 1019.6 hPa
Clouds: Clear
Visibility: 8 miles , 13 km
2017/12/14 20:53 KCCR 142053Z 35005KT 8SM CLR 17/05 A3011 RMK AO2 SLP182 T01720050 58014
deformed-offering